createdAt,value
2018-03-01T00:01:29.439Z,9.40
2018-03-01T00:03:56.931Z,7.37
2018-03-01T00:06:24.472Z,6.97
2018-03-01T00:08:51.990Z,6.65
2018-03-01T00:11:19.487Z,5.87
2018-03-01T00:13:46.982Z,7.15
2018-03-01T00:16:14.830Z,5.20
2018-03-01T00:18:42.332Z,7.00
2018-03-01T00:21:10.594Z,6.87
2018-03-01T00:23:38.120Z,8.15
2018-03-01T00:26:05.626Z,6.53
2018-03-01T00:28:33.465Z,7.25
2018-03-01T00:31:01.046Z,6.50
2018-03-01T00:33:29.317Z,6.35
2018-03-01T00:35:56.811Z,6.97
2018-03-01T00:38:24.488Z,6.00
2018-03-01T00:40:51.993Z,6.62
2018-03-01T00:43:19.481Z,6.68
2018-03-01T00:45:46.993Z,8.20
2018-03-01T00:48:14.482Z,6.10
2018-03-01T00:50:42.792Z,6.70
2018-03-01T00:53:10.668Z,7.55
2018-03-01T00:55:38.162Z,6.60
2018-03-01T00:58:05.812Z,8.00
2018-03-01T01:00:33.863Z,6.85
2018-03-01T01:03:01.360Z,6.60
2018-03-01T01:05:29.163Z,9.27
2018-03-01T01:07:56.682Z,5.95
2018-03-01T01:10:24.186Z,7.95
2018-03-01T01:12:51.697Z,7.57
2018-03-01T01:15:19.976Z,6.20
2018-03-01T01:17:47.632Z,6.82
2018-03-01T01:20:15.147Z,8.95
2018-03-01T01:22:42.784Z,6.32
2018-03-01T01:25:10.287Z,6.25
2018-03-01T01:27:37.789Z,7.22
2018-03-01T01:30:05.573Z,8.85
2018-03-01T01:32:33.080Z,8.90
2018-03-01T01:35:00.634Z,8.18
2018-03-01T01:37:28.149Z,9.32
2018-03-01T01:39:55.669Z,7.35
2018-03-01T01:42:23.292Z,7.53
2018-03-01T01:44:50.927Z,7.07
2018-03-01T01:47:19.193Z,8.27
2018-03-01T01:49:46.807Z,8.98
2018-03-01T01:52:14.335Z,8.07
2018-03-01T01:54:42.746Z,5.55
2018-03-01T01:57:10.271Z,9.13
2018-03-01T01:59:38.581Z,9.65
2018-03-01T02:02:06.076Z,6.55
2018-03-01T02:04:34.013Z,8.07
2018-03-01T02:07:01.835Z,7.60
2018-03-01T02:09:29.334Z,6.40
2018-03-01T02:11:57.171Z,7.70
2018-03-01T02:14:24.694Z,8.13
2018-03-01T02:16:52.319Z,7.68
2018-03-01T02:19:21.040Z,8.35
2018-03-01T02:21:48.826Z,8.30
2018-03-01T02:24:16.331Z,5.37
2018-03-01T02:26:44.112Z,7.62
2018-03-01T02:29:11.655Z,7.15
2018-03-01T02:31:39.541Z,6.43
2018-03-01T02:34:07.274Z,6.28
2018-03-01T02:36:35.062Z,8.20
2018-03-01T02:39:02.700Z,7.28
2018-03-01T02:41:30.364Z,6.43
2018-03-01T02:43:58.202Z,6.00
2018-03-01T02:46:26.032Z,9.02
2018-03-01T02:48:53.610Z,7.60
2018-03-01T02:51:22.164Z,8.25
2018-03-01T02:53:49.734Z,6.18
2018-03-01T02:56:18.428Z,5.62
2018-03-01T02:58:46.014Z,9.20
2018-03-01T03:01:13.650Z,7.30
2018-03-01T03:03:41.146Z,8.15
2018-03-01T03:06:08.665Z,6.45
2018-03-01T03:08:36.553Z,6.72
2018-03-01T03:11:04.244Z,8.45
2018-03-01T03:13:32.997Z,5.60
2018-03-01T03:16:00.735Z,8.30
2018-03-01T03:18:28.241Z,7.30
2018-03-01T03:20:56.203Z,7.53
2018-03-01T03:23:23.727Z,7.12
2018-03-01T03:25:51.226Z,7.87
2018-03-01T03:28:18.758Z,6.68
2018-03-01T03:30:46.258Z,5.93
2018-03-01T03:33:13.987Z,7.10
2018-03-01T03:35:41.603Z,6.35
2018-03-01T03:38:09.106Z,7.18
2018-03-01T03:40:37.373Z,5.82
2018-03-01T03:43:04.893Z,4.72
2018-03-01T03:45:33.180Z,8.13
2018-03-01T03:48:00.716Z,7.50
2018-03-01T03:50:28.239Z,5.72
2018-03-01T03:52:55.746Z,7.28
2018-03-01T03:55:24.009Z,9.00
2018-03-01T03:57:51.828Z,8.75
2018-03-01T04:00:19.317Z,6.95
2018-03-01T04:02:46.810Z,7.50
2018-03-01T04:05:15.111Z,5.82
2018-03-01T04:07:42.618Z,5.62
2018-03-01T04:10:10.139Z,6.25
2018-03-01T04:12:37.646Z,6.72
2018-03-01T04:15:05.142Z,5.85
2018-03-01T04:17:32.650Z,7.65
2018-03-01T04:20:00.186Z,8.18
2018-03-01T04:22:27.696Z,7.65
2018-03-01T04:24:55.955Z,7.47
2018-03-01T04:27:23.478Z,7.35
2018-03-01T04:29:50.974Z,7.93
2018-03-01T04:32:18.488Z,7.20
2018-03-01T04:34:46.357Z,7.53
2018-03-01T04:37:13.863Z,6.75
2018-03-01T04:39:41.358Z,7.18
2018-03-01T04:42:08.882Z,5.85
2018-03-01T04:44:36.381Z,9.15
2018-03-01T04:47:03.879Z,7.15
2018-03-01T04:49:31.399Z,7.28
2018-03-01T04:51:58.942Z,8.63
2018-03-01T04:54:26.440Z,7.60
2018-03-01T04:56:54.066Z,5.37
2018-03-01T04:59:22.346Z,7.18
2018-03-01T05:01:49.851Z,6.40
2018-03-01T05:04:17.375Z,8.05
2018-03-01T05:06:44.872Z,6.85
2018-03-01T05:09:12.373Z,6.72
2018-03-01T05:11:40.658Z,7.80
2018-03-01T05:14:08.934Z,7.93
2018-03-01T05:16:37.208Z,8.05
2018-03-01T05:19:05.509Z,5.55
2018-03-01T05:21:33.010Z,7.35
2018-03-01T05:24:00.518Z,6.70
2018-03-01T05:26:28.158Z,7.70
2018-03-01T05:28:55.668Z,7.37
2018-03-01T05:31:23.251Z,5.60
2018-03-01T05:33:50.773Z,7.05
2018-03-01T05:36:18.683Z,7.40
2018-03-01T05:38:47.682Z,6.43
2018-03-01T05:41:15.195Z,7.90
2018-03-01T05:43:42.693Z,7.07
2018-03-01T05:46:10.203Z,7.97
2018-03-01T05:48:38.009Z,8.65
2018-03-01T05:51:05.498Z,5.05
2018-03-01T05:53:32.995Z,6.35
2018-03-01T05:56:00.523Z,6.40
2018-03-01T05:58:28.802Z,7.22
2018-03-01T06:00:57.142Z,7.93
2018-03-01T06:03:24.689Z,6.20
2018-03-01T06:05:52.203Z,6.47
2018-03-01T06:08:20.547Z,7.05
2018-03-01T06:10:48.090Z,7.25
2018-03-01T06:13:15.635Z,4.85
2018-03-01T06:15:43.214Z,7.85
2018-03-01T06:18:10.766Z,7.72
2018-03-01T06:20:38.273Z,6.87
2018-03-01T06:23:06.530Z,5.90
2018-03-01T06:25:34.050Z,8.15
2018-03-01T06:28:01.577Z,8.23
2018-03-01T06:30:29.090Z,7.70
2018-03-01T06:32:56.607Z,5.85
2018-03-01T06:35:24.106Z,9.65
2018-03-01T06:37:52.711Z,8.00
2018-03-01T06:40:20.270Z,6.50
2018-03-01T06:42:47.758Z,6.90
2018-03-01T06:45:16.027Z,7.15
2018-03-01T06:47:44.317Z,7.50
2018-03-01T06:50:12.879Z,7.50
2018-03-01T06:52:41.138Z,7.78
2018-03-01T06:55:08.647Z,8.05
2018-03-01T06:57:36.167Z,7.50
2018-03-01T07:00:03.683Z,8.38
2018-03-01T07:02:31.209Z,7.10
2018-03-01T07:04:58.946Z,6.40
2018-03-01T07:07:26.459Z,9.13
2018-03-01T07:09:53.986Z,9.20
2018-03-01T07:12:21.481Z,8.63
2018-03-01T07:14:49.278Z,8.77
2018-03-01T07:17:17.089Z,8.20
2018-03-01T07:19:45.356Z,8.38
2018-03-01T07:22:13.682Z,8.32
2018-03-01T07:24:41.210Z,7.93
2018-03-01T07:27:08.714Z,9.10
2018-03-01T07:29:36.288Z,7.35
2018-03-01T07:32:03.820Z,8.00
2018-03-01T07:34:31.326Z,8.80
2018-03-01T07:36:59.793Z,11.00
2018-03-01T07:39:27.413Z,10.55
2018-03-01T07:41:54.950Z,10.02
2018-03-01T07:44:22.460Z,10.13
2018-03-01T07:46:50.185Z,9.13
2018-03-01T07:49:17.687Z,7.78
2018-03-01T07:51:45.187Z,7.97
2018-03-01T07:54:12.773Z,10.40
2018-03-01T07:56:41.052Z,9.07
2018-03-01T07:59:08.551Z,8.75
2018-03-01T08:01:36.051Z,8.43
2018-03-01T08:04:03.584Z,8.90
2018-03-01T08:06:31.083Z,8.95
2018-03-01T08:08:58.586Z,8.05
2018-03-01T08:11:26.115Z,8.82
2018-03-01T08:13:53.706Z,10.27
2018-03-01T08:16:21.207Z,9.25
2018-03-01T08:18:48.780Z,10.63
2018-03-01T08:21:16.588Z,8.93
2018-03-01T08:23:44.095Z,9.73
2018-03-01T08:26:11.631Z,10.55
2018-03-01T08:28:39.896Z,9.98
2018-03-01T08:31:07.398Z,8.55
2018-03-01T08:33:35.277Z,10.07
2018-03-01T08:36:02.807Z,8.98
2018-03-01T08:38:30.335Z,11.95
2018-03-01T08:40:57.865Z,9.73
2018-03-01T08:43:25.375Z,10.82
2018-03-01T08:45:53.689Z,10.70
2018-03-01T08:48:21.321Z,10.10
2018-03-01T08:50:49.627Z,10.57
2018-03-01T08:53:17.163Z,10.00
2018-03-01T08:55:44.719Z,10.13
2018-03-01T08:58:13.177Z,9.80
2018-03-01T09:00:40.684Z,11.60
2018-03-01T09:03:08.217Z,10.95
2018-03-01T09:05:36.612Z,10.30
2018-03-01T09:08:04.443Z,9.50
2018-03-01T09:10:31.987Z,9.57
2018-03-01T09:12:59.521Z,10.90
2018-03-01T09:15:27.019Z,10.48
2018-03-01T09:17:54.569Z,10.35
2018-03-01T09:20:22.079Z,12.07
2018-03-01T09:22:49.600Z,12.65
2018-03-01T09:25:17.191Z,10.65
2018-03-01T09:27:44.706Z,11.43
2018-03-01T09:30:12.276Z,10.43
2018-03-01T09:32:39.860Z,11.70
2018-03-01T09:35:08.342Z,11.15
2018-03-01T09:37:36.635Z,11.02
2018-03-01T09:40:04.341Z,12.18
2018-03-01T09:42:32.638Z,11.18
2018-03-01T09:45:00.170Z,11.70
2018-03-01T09:47:27.714Z,11.45
2018-03-01T09:49:55.233Z,10.20
2018-03-01T09:52:23.543Z,13.68
2018-03-01T09:54:51.104Z,11.30
2018-03-01T09:57:18.694Z,9.93
2018-03-01T09:59:46.528Z,11.80
2018-03-01T10:02:14.076Z,10.70
2018-03-01T10:04:41.579Z,11.37
2018-03-01T10:07:09.107Z,11.50
2018-03-01T10:09:36.627Z,11.17
2018-03-01T10:12:04.165Z,12.23
2018-03-01T10:14:31.692Z,11.93
2018-03-01T10:16:59.229Z,11.90
2018-03-01T10:19:26.745Z,10.70
2018-03-01T10:21:54.255Z,10.67
2018-03-01T10:24:22.015Z,10.77
2018-03-01T10:26:49.522Z,10.70
2018-03-01T10:29:17.027Z,11.00
2018-03-01T10:31:45.698Z,12.47
2018-03-01T10:34:13.211Z,10.50
2018-03-01T10:36:40.714Z,12.20
2018-03-01T10:39:09.042Z,11.77
2018-03-01T10:41:36.540Z,9.90
2018-03-01T10:44:04.056Z,11.07
2018-03-01T10:46:31.916Z,12.37
2018-03-01T10:48:59.542Z,11.60
2018-03-01T10:51:27.050Z,11.17
2018-03-01T10:53:54.583Z,11.60
2018-03-01T10:56:22.124Z,10.70
2018-03-01T10:58:49.631Z,10.63
2018-03-01T11:01:18.773Z,12.17
2018-03-01T11:03:46.296Z,10.30
2018-03-01T11:06:13.812Z,12.70
2018-03-01T11:08:41.482Z,11.00
2018-03-01T11:11:08.986Z,9.27
2018-03-01T11:13:37.257Z,11.03
2018-03-01T11:16:04.783Z,13.03
2018-03-01T11:18:32.291Z,10.90
2018-03-01T11:20:59.795Z,11.23
2018-03-01T11:23:27.333Z,11.60
2018-03-01T11:25:54.827Z,12.60
2018-03-01T11:28:23.089Z,10.93
2018-03-01T11:30:51.512Z,12.00
2018-03-01T11:33:18.975Z,11.33
2018-03-01T11:35:46.480Z,12.10
2018-03-01T11:38:14.801Z,11.97
2018-03-01T11:40:42.294Z,10.47
2018-03-01T11:43:09.796Z,10.33
2018-03-01T11:45:38.458Z,11.80
2018-03-01T11:48:05.974Z,11.20
2018-03-01T11:50:33.470Z,10.40
2018-03-01T11:53:01.856Z,10.77
2018-03-01T11:55:30.706Z,11.90
2018-03-01T11:57:58.246Z,10.00
2018-03-01T12:00:25.793Z,11.30
2018-03-01T12:02:53.598Z,11.23
2018-03-01T12:05:21.099Z,13.23
2018-03-01T12:07:48.630Z,11.67
2018-03-01T12:10:16.127Z,11.97
2018-03-01T12:12:44.766Z,11.83
2018-03-01T12:15:12.351Z,11.67
2018-03-01T12:17:40.619Z,11.70
2018-03-01T12:20:08.111Z,12.53
2018-03-01T12:22:36.809Z,11.60
2018-03-01T12:25:05.812Z,10.20
2018-03-01T12:27:33.381Z,12.00
2018-03-01T12:30:01.092Z,12.83
2018-03-01T12:32:29.752Z,12.07
2018-03-01T12:34:57.255Z,12.90
2018-03-01T12:37:25.635Z,12.10
2018-03-01T12:39:53.388Z,13.27
2018-03-01T12:42:21.655Z,13.20
2018-03-01T12:44:49.178Z,12.40
2018-03-01T12:47:16.681Z,12.87
2018-03-01T12:49:44.204Z,11.47
2018-03-01T12:52:11.811Z,11.60
2018-03-01T12:54:39.314Z,12.37
2018-03-01T12:57:06.810Z,10.37
2018-03-01T12:59:34.394Z,13.50
2018-03-01T13:02:01.895Z,12.30
2018-03-01T13:04:33.401Z,11.37
2018-03-01T13:07:00.937Z,11.60
2018-03-01T13:09:28.494Z,10.97
2018-03-01T13:11:56.005Z,12.60
2018-03-01T13:14:23.537Z,13.80
2018-03-01T13:16:51.872Z,13.50
2018-03-01T13:19:19.419Z,11.70
2018-03-01T13:21:47.083Z,13.20
2018-03-01T13:24:14.600Z,13.83
2018-03-01T13:26:42.874Z,11.77
2018-03-01T13:29:11.166Z,11.37
2018-03-01T13:31:43.192Z,11.30
2018-03-01T13:34:29.465Z,13.70
2018-03-01T13:36:56.997Z,12.20
2018-03-01T13:39:24.657Z,12.03
2018-03-01T13:41:55.184Z,13.27
2018-03-01T13:44:22.691Z,13.37
2018-03-01T13:46:52.125Z,13.23
2018-03-01T13:49:20.423Z,13.13
2018-03-01T13:51:47.937Z,14.47
2018-03-01T13:54:15.439Z,15.70
2018-03-01T13:56:42.988Z,14.20
2018-03-01T13:59:11.270Z,14.80
2018-03-01T14:01:39.531Z,12.87
2018-03-01T14:04:07.307Z,13.27
2018-03-01T14:20:29.413Z,13.80
2018-03-01T14:23:02.616Z,13.83
2018-03-01T14:25:44.012Z,14.10
2018-03-01T14:41:34.559Z,12.00
2018-03-01T14:44:02.089Z,11.93
2018-03-01T14:46:29.607Z,13.00
2018-03-01T14:48:57.143Z,12.20
2018-03-01T14:51:24.725Z,13.60
2018-03-01T14:53:52.264Z,15.70
2018-03-01T14:56:20.211Z,12.60
2018-03-01T14:58:48.710Z,14.13
2018-03-01T15:01:18.247Z,13.80
2018-03-01T15:03:47.728Z,14.50
2018-03-01T15:06:16.552Z,15.53
2018-03-01T15:08:45.644Z,12.73
2018-03-01T15:11:14.773Z,13.77
2018-03-01T15:13:43.554Z,14.40
2018-03-01T15:16:13.461Z,15.60
2018-03-01T15:18:43.327Z,13.23
2018-03-01T15:21:12.322Z,12.50
2018-03-01T15:23:41.567Z,14.70
2018-03-01T15:26:10.471Z,14.10
2018-03-01T15:28:40.640Z,13.50
2018-03-01T15:31:09.773Z,11.53
2018-03-01T15:33:38.985Z,15.53
2018-03-01T15:36:07.738Z,14.70
2018-03-01T15:38:37.230Z,13.13
2018-03-01T15:41:07.605Z,13.10
2018-03-01T15:43:36.537Z,13.87
2018-03-01T15:46:05.045Z,13.05
2018-03-01T15:48:34.432Z,14.37
2018-03-01T15:51:02.914Z,13.87
2018-03-01T15:53:31.768Z,16.10
2018-03-01T15:56:01.761Z,15.13
2018-03-01T15:58:30.240Z,14.30
2018-03-01T16:00:58.981Z,12.67
2018-03-01T16:03:27.759Z,13.82
2018-03-01T16:05:56.911Z,13.82
2018-03-01T16:08:26.181Z,15.52
2018-03-01T16:10:55.987Z,14.00
2018-03-01T16:13:24.834Z,12.32
2018-03-01T16:15:53.866Z,15.30
2018-03-01T16:18:23.196Z,13.73
2018-03-01T16:20:52.224Z,13.65
2018-03-01T16:23:20.993Z,14.87
2018-03-01T16:25:49.984Z,14.87
2018-03-01T16:28:18.790Z,12.23
2018-03-01T16:30:50.070Z,13.05
2018-03-01T16:33:19.786Z,14.82
2018-03-01T16:35:48.299Z,15.10
2018-03-01T16:38:16.776Z,13.45
2018-03-01T16:40:45.349Z,13.68
2018-03-01T16:43:14.152Z,13.48
2018-03-01T16:45:42.929Z,13.73
2018-03-01T16:48:11.604Z,14.60
2018-03-01T16:50:40.585Z,13.90
2018-03-01T16:53:09.329Z,16.95
2018-03-01T16:55:38.225Z,12.57
2018-03-01T16:58:06.986Z,13.40
2018-03-01T17:00:36.846Z,13.35
2018-03-01T17:03:05.512Z,13.35
2018-03-01T17:05:34.064Z,13.13
2018-03-01T17:08:02.837Z,13.25
2018-03-01T17:10:31.714Z,13.13
2018-03-01T17:13:00.931Z,13.73
2018-03-01T17:15:29.414Z,16.23
2018-03-01T17:17:58.001Z,15.80
2018-03-01T17:20:26.892Z,13.60
2018-03-01T17:22:55.602Z,13.32
2018-03-01T17:25:25.074Z,11.07
2018-03-01T17:27:53.823Z,12.50
2018-03-01T17:30:23.328Z,14.10
2018-03-01T17:32:52.307Z,14.00
2018-03-01T17:35:20.914Z,14.27
2018-03-01T17:37:51.119Z,13.43
2018-03-01T17:40:20.272Z,14.93
2018-03-01T17:42:49.573Z,13.93
2018-03-01T17:45:19.111Z,16.08
2018-03-01T17:47:47.846Z,13.52
2018-03-01T17:50:17.162Z,12.98
2018-03-01T17:52:45.697Z,12.27
2018-03-01T17:55:14.379Z,13.23
2018-03-01T17:57:43.376Z,13.02
2018-03-01T18:00:12.041Z,15.68
2018-03-01T18:02:40.650Z,13.88
2018-03-01T18:05:09.185Z,13.27
2018-03-01T18:07:37.723Z,14.50
2018-03-01T18:10:06.876Z,13.45
2018-03-01T18:12:35.603Z,14.30
2018-03-01T18:15:05.830Z,12.50
2018-03-01T18:17:35.164Z,15.05
2018-03-01T18:20:04.818Z,14.57
2018-03-01T18:22:34.394Z,13.18
2018-03-01T18:25:03.145Z,15.60
2018-03-01T18:27:32.468Z,16.05
2018-03-01T18:30:02.988Z,14.70
2018-03-01T18:32:32.525Z,15.25
2018-03-01T18:35:01.488Z,15.93
2018-03-01T18:37:31.266Z,12.55
2018-03-01T18:39:59.916Z,14.43
2018-03-01T18:42:28.454Z,16.70
2018-03-01T18:44:57.124Z,15.60
2018-03-01T18:47:26.650Z,14.43
2018-03-01T18:49:56.509Z,15.63
2018-03-01T18:52:25.173Z,16.17
2018-03-01T18:54:55.512Z,13.02
2018-03-01T18:57:25.620Z,15.05
2018-03-01T18:59:56.260Z,14.55
2018-03-01T19:02:24.836Z,15.48
2018-03-01T19:04:54.608Z,14.48
2018-03-01T19:07:25.441Z,13.70
2018-03-01T19:09:54.653Z,15.65
2018-03-01T19:12:24.137Z,15.95
2018-03-01T19:14:55.043Z,14.35
2018-03-01T19:17:25.373Z,15.57
2018-03-01T19:19:54.594Z,14.70
2018-03-01T19:22:26.252Z,15.95
2018-03-01T19:24:54.934Z,14.18
2018-03-01T19:27:24.354Z,12.00
2018-03-01T19:29:55.393Z,14.85
2018-03-01T19:32:23.955Z,15.68
2018-03-01T19:34:54.083Z,14.43
2018-03-01T19:37:22.744Z,14.02
2018-03-01T19:39:52.034Z,15.15
2018-03-01T19:42:22.561Z,16.45
2018-03-01T19:44:53.126Z,15.88
2018-03-01T19:47:23.827Z,13.02
2018-03-01T19:49:53.174Z,15.57
2018-03-01T19:52:22.762Z,14.57
2018-03-01T19:54:53.307Z,12.75
2018-03-01T19:57:22.718Z,14.63
2018-03-01T19:59:52.395Z,14.20
2018-03-01T20:02:21.232Z,14.45
2018-03-01T20:04:49.914Z,14.13
2018-03-01T20:07:19.436Z,13.93
2018-03-01T20:09:48.603Z,15.18
2018-03-01T20:12:18.684Z,14.35
2018-03-01T20:14:48.022Z,12.70
2018-03-01T20:17:16.850Z,14.00
2018-03-01T20:19:48.782Z,15.45
2018-03-01T20:22:18.673Z,14.27
2018-03-01T20:24:47.240Z,15.60
2018-03-01T20:27:16.725Z,13.00
2018-03-01T20:29:47.005Z,14.45
2018-03-01T20:32:18.481Z,12.52
2018-03-01T20:34:47.038Z,12.50
2018-03-01T20:37:16.104Z,13.35
2018-03-01T20:39:45.110Z,14.02
2018-03-01T20:42:14.436Z,12.50
2018-03-01T20:44:44.891Z,13.35
2018-03-01T20:47:13.564Z,15.77
2018-03-01T20:49:43.184Z,14.13
2018-03-01T20:52:12.686Z,13.45
2018-03-01T20:54:42.236Z,15.57
2018-03-01T20:57:11.913Z,15.93
2018-03-01T20:59:40.462Z,13.80
2018-03-01T21:02:10.055Z,13.62
2018-03-01T21:04:39.586Z,12.90
2018-03-01T21:07:08.538Z,12.60
2018-03-01T21:09:40.154Z,13.23
2018-03-01T21:12:09.783Z,13.10
2018-03-01T21:14:39.578Z,14.20
2018-03-01T21:17:09.226Z,14.23
2018-03-01T21:19:38.612Z,14.80
2018-03-01T21:22:09.518Z,14.77
2018-03-01T21:24:38.987Z,12.90
2018-03-01T21:27:07.823Z,12.15
2018-03-01T21:29:36.745Z,12.10
2018-03-01T21:32:06.390Z,14.23
2018-03-01T21:34:35.161Z,12.27
2018-03-01T21:37:03.752Z,13.82
2018-03-01T21:39:32.267Z,14.45
2018-03-01T21:42:00.927Z,14.25
2018-03-01T21:44:30.026Z,14.00
2018-03-01T21:47:07.860Z,14.75
2018-03-01T21:49:36.867Z,15.77
2018-03-01T21:52:05.618Z,12.32
2018-03-01T21:54:35.039Z,13.02
2018-03-01T21:57:04.081Z,13.25
2018-03-01T21:59:32.886Z,13.30
2018-03-01T22:02:01.839Z,13.65
2018-03-01T22:04:33.288Z,13.80
2018-03-01T22:07:02.836Z,14.75
2018-03-01T22:09:33.671Z,14.65
2018-03-01T22:12:02.836Z,11.55
2018-03-01T22:14:31.411Z,12.63
2018-03-01T22:17:01.107Z,13.43
2018-03-01T22:19:30.716Z,14.40
2018-03-01T22:21:59.515Z,11.20
2018-03-01T22:24:29.154Z,13.98
2018-03-01T22:26:58.138Z,14.70
2018-03-01T22:29:26.553Z,12.65
2018-03-01T22:31:55.260Z,14.00
2018-03-01T22:34:23.918Z,15.82
2018-03-01T22:36:53.123Z,14.02
2018-03-01T22:39:21.359Z,12.18
2018-03-01T22:41:49.834Z,13.90
2018-03-01T22:44:18.372Z,14.93
2018-03-01T22:46:47.466Z,13.60
2018-03-01T22:49:15.579Z,13.55
2018-03-01T22:51:43.398Z,14.77
2018-03-01T22:54:11.109Z,13.27
2018-03-01T22:56:38.900Z,15.95
2018-03-01T22:59:07.187Z,14.00
2018-03-01T23:01:34.718Z,12.60
2018-03-01T23:04:02.345Z,15.52
2018-03-01T23:06:29.854Z,14.32
2018-03-01T23:08:58.202Z,14.02
2018-03-01T23:11:25.730Z,12.73
2018-03-01T23:13:53.222Z,14.13
2018-03-01T23:16:20.721Z,12.40
2018-03-01T23:18:48.255Z,11.93
2018-03-01T23:21:15.767Z,15.10
2018-03-01T23:23:43.268Z,12.05
2018-03-01T23:26:11.149Z,14.05
2018-03-01T23:28:38.658Z,12.23
2018-03-01T23:31:06.165Z,12.02
2018-03-01T23:33:34.490Z,14.23
2018-03-01T23:36:02.006Z,12.82
2018-03-01T23:38:30.284Z,12.93
2018-03-01T23:40:58.592Z,12.07
2018-03-01T23:43:26.365Z,11.15
2018-03-01T23:45:54.171Z,11.57
2018-03-01T23:48:21.713Z,10.90
2018-03-01T23:50:49.254Z,13.23
2018-03-01T23:53:16.750Z,13.13
2018-03-01T23:55:44.279Z,13.00
2018-03-01T23:58:12.181Z,12.85
